Terminal Aerodrome Forecast
Issued by NWS Bismarck, ND

Home | Current Version | Previous Version | Text Only | Print | Product List | Glossary On
Versions: 1 2 3 4 5 6 7 8 9 10 11 12 13 14 15 16 17 18 19 20 21 22 23 24
000
FTUS43 KBIS 111700
TAFBIS
TAF
KBIS 111731Z 1118/1218 36010KT P6SM VCSH BKN110
     FM112100 01009KT P6SM SCT100
     FM120600 02005KT P6SM VCSH SCT050 OVC100
     FM120800 05006KT P6SM VCSH BKN025 OVC050
     FM121500 24005KT P6SM BKN035 BKN090=

USA.gov is the U.S. government's official web portal to all federal, state and local government web resources and services.